Amsterdam, Netherlands
Current Conditions -  °F | °C
As of 4:55 PM on Tuesday 21 Oct 2014 (Local Time) from EHAM Reporting Station
Few Clouds Few Clouds  
Wind Chill: 54°   Ceiling: Unl
Heat Index: 54°   Visibility: 6mi
Dew Point: 46°   Wind: 29mph
Humidity: 77%   Direction: 280°W
Pressure: 29.5"   Gusts: NA
Location:  52.35°N, 4.9°E
Report Text: EHAM 211455Z 28025KT 250V310 9999 FEW030CB 12/08 Q0999 NOSIG
Loading
Personal Weather Stations






























Interactive Weather Map
Tropical Storm Tracking
New forecast layout! Learn more

10-Day Weather Forecast

Advertisements
Track Severe Weather on mobile